Main page
METAR-TAF:

METAR-TAF

Airports :

Haneda Airport

Tokyo-Haneda, Japan

latitude: 35-33N, longitude: 139-47E, elevation: 5 m

Current weather observation

The report was made 31 minutes ago, at 23:00 UTC
Wind 8 kt from the North
Temperature 4°C
Humidity 65%
Pressure 1010 hPa
Visibility 10 km or more
Few clouds at a height of 3000 ft

METAR: RJTT 212300Z 01008KT 9999 FEW030 04/M02 Q1010 NOSIG RMK 1CU030 A2984 MOD TURB OBS AT 2250Z 10NM S HANEDA BTN 7000FT AND 14000FT IN CMB BY B763

Time: 08:31 (23:31 UTC)

Forecast

The report was made 6 hours and 26 minutes ago, at 17:05 UTC
Forecast valid from 21 at 18 UTC to 23 at 00 UTC
Wind 6 kt from the West/Southwest
Visibility 10 km or more
Few clouds at a height of 3000 ft
Scattered clouds at a height of 6000 ft
Becoming
from 21 at 23 UTC to 22 at 01 UTC
Wind 10 kt from the North

TAF: RJTT 211705Z 2118/2300 25006KT 9999 FEW030 SCT060 BECMG 2123/2201 01010KT

Weather observations and forecasts of more than 4000 airports (METAR and TAF reports).

The available stations are represented by yellow and red dots on the map.

Hover mouse over dot to see the name of the station.

Then click to see weather observations and forecasts.

To change the map : click on the green buttons with a black cross to zoom in, on the green button with a dash to zoom out, or on the green arrows for adjacent maps.


METAR-TAF: